createdAt,value
2022-08-14T00:02:24.502Z,98643.61
2022-08-14T00:04:54.700Z,98642.87
2022-08-14T00:07:22.391Z,98645.66
2022-08-14T00:10:01.911Z,98644.90
2022-08-14T00:12:40.548Z,98636.52
2022-08-14T00:15:18.088Z,98630.60
2022-08-14T00:17:48.086Z,98634.55
2022-08-14T00:20:30.497Z,98631.45
2022-08-14T00:23:12.564Z,98630.02
2022-08-14T00:25:54.095Z,98620.73
2022-08-14T00:28:36.698Z,98621.71
2022-08-14T00:31:06.736Z,98618.11
2022-08-14T00:33:52.211Z,98616.29
2022-08-14T00:36:35.130Z,98618.29
2022-08-14T00:39:09.463Z,98612.30
2022-08-14T00:41:39.197Z,98606.05
2022-08-14T00:44:07.114Z,98609.69
2022-08-14T00:46:40.854Z,98615.70
2022-08-14T00:49:11.602Z,98613.45
2022-08-14T00:51:44.037Z,98613.27
2022-08-14T00:54:20.868Z,98616.70
2022-08-14T00:56:55.244Z,98608.84
2022-08-14T00:59:44.514Z,98607.41
2022-08-14T01:02:15.778Z,98607.92
2022-08-14T01:04:53.927Z,98599.92
2022-08-14T01:07:24.052Z,98600.77
2022-08-14T01:09:54.919Z,98595.90
2022-08-14T01:12:27.290Z,98593.79
2022-08-14T01:15:02.782Z,98591.32
2022-08-14T01:17:51.884Z,98595.48
2022-08-14T01:20:40.915Z,98597.09
2022-08-14T01:23:16.396Z,98600.90
2022-08-14T01:25:51.335Z,98592.98
2022-08-14T01:28:46.042Z,98598.67
2022-08-14T01:31:14.363Z,98601.70
2022-08-14T01:35:16.600Z,98605.69
2022-08-14T01:36:39.694Z,98601.54
2022-08-14T01:39:14.006Z,98600.98
2022-08-14T01:41:49.320Z,98607.70
2022-08-14T01:44:31.312Z,98600.70
2022-08-14T01:47:12.191Z,98600.46
2022-08-14T01:50:01.678Z,98595.00
2022-08-14T01:52:58.542Z,98598.95
2022-08-14T01:55:28.837Z,98590.48
2022-08-14T01:58:18.804Z,98582.92
2022-08-14T02:00:44.397Z,98577.72
2022-08-14T02:03:16.122Z,98577.08
2022-08-14T02:05:43.802Z,98567.46
2022-08-14T02:08:11.332Z,98562.16
2022-08-14T02:10:47.362Z,98567.35
2022-08-14T02:13:18.602Z,98567.64
2022-08-14T02:15:48.497Z,98562.14
2022-08-14T02:18:18.363Z,98563.02
2022-08-14T02:20:48.523Z,98564.63
2022-08-14T02:23:16.268Z,98567.09
2022-08-14T02:25:54.672Z,98565.00
2022-08-14T02:28:57.475Z,98570.40
2022-08-14T02:31:12.170Z,98571.91
2022-08-14T02:33:42.999Z,98571.89
2022-08-14T02:37:02.842Z,98573.27
2022-08-14T02:38:59.053Z,98572.77
2022-08-14T02:41:28.637Z,98568.95
2022-08-14T02:44:00.841Z,98569.86
2022-08-14T02:46:32.322Z,98571.59
2022-08-14T02:49:06.184Z,98574.96
2022-08-14T02:51:36.700Z,98575.61
2022-08-14T02:54:07.515Z,98572.48
2022-08-14T02:57:16.280Z,98566.80
2022-08-14T02:59:29.153Z,98564.41
2022-08-14T03:02:04.454Z,98569.96
2022-08-14T03:04:32.142Z,98566.06
2022-08-14T03:07:07.690Z,98564.31
2022-08-14T03:10:27.539Z,98566.71
2022-08-14T03:12:42.607Z,98565.65
2022-08-14T03:15:16.424Z,98561.55
2022-08-14T03:17:56.831Z,98560.70
2022-08-14T03:20:28.393Z,98560.29
2022-08-14T03:23:04.406Z,98562.40
2022-08-14T03:25:40.837Z,98555.91
2022-08-14T03:28:14.633Z,98558.20
2022-08-14T03:30:59.870Z,98556.86
2022-08-14T03:33:37.799Z,98566.67
2022-08-14T03:37:37.718Z,98552.55
2022-08-14T03:39:14.961Z,98558.27
2022-08-14T03:41:52.636Z,98566.44
2022-08-14T03:45:25.240Z,98564.70
2022-08-14T03:47:08.154Z,98559.23
2022-08-14T03:49:36.330Z,98558.02
2022-08-14T03:52:28.050Z,98559.23
2022-08-14T03:54:59.463Z,98565.52
2022-08-14T03:57:32.623Z,98561.77
2022-08-14T04:00:04.260Z,98562.77
2022-08-14T04:02:46.739Z,98565.02
2022-08-14T04:05:16.659Z,98572.80
2022-08-14T04:08:00.156Z,98569.10
2022-08-14T04:10:33.133Z,98567.04
2022-08-14T04:13:06.325Z,98569.11
2022-08-14T04:15:52.705Z,98566.98
2022-08-14T04:18:22.433Z,98563.17
2022-08-14T04:20:54.233Z,98563.05
2022-08-14T04:23:29.533Z,98555.73
2022-08-14T04:26:03.721Z,98553.34
2022-08-14T04:29:08.009Z,98550.81
2022-08-14T04:32:56.319Z,98551.39
2022-08-14T04:34:17.278Z,98548.95
2022-08-14T04:37:08.208Z,98546.36
2022-08-14T04:39:57.246Z,98539.30
2022-08-14T04:42:47.510Z,98539.80
2022-08-14T04:45:23.975Z,98541.29
2022-08-14T04:48:10.883Z,98537.21
2022-08-14T04:50:44.651Z,98533.70
2022-08-14T04:53:17.627Z,98537.43
2022-08-14T04:55:51.638Z,98540.02
2022-08-14T04:58:32.921Z,98534.38
2022-08-14T05:01:06.083Z,98534.42
2022-08-14T05:03:40.695Z,98540.90
2022-08-14T05:06:38.109Z,98537.84
2022-08-14T05:08:59.971Z,98537.55
2022-08-14T05:11:33.271Z,98534.95
2022-08-14T05:14:33.108Z,98537.20
2022-08-14T05:16:52.669Z,98532.49
2022-08-14T05:19:29.213Z,98532.02
2022-08-14T05:22:15.586Z,98527.95
2022-08-14T05:24:50.356Z,98525.59
2022-08-14T05:27:22.890Z,98521.54
2022-08-14T05:29:52.808Z,98518.20
2022-08-14T05:32:20.363Z,98513.64
2022-08-14T05:34:48.153Z,98508.36
2022-08-14T05:37:15.717Z,98513.23
2022-08-14T05:39:43.032Z,98512.09
2022-08-14T05:42:21.677Z,98518.10
2022-08-14T05:44:49.812Z,98516.40
2022-08-14T05:47:21.497Z,98515.75
2022-08-14T05:49:49.666Z,98519.33
2022-08-14T05:52:18.930Z,98511.63
2022-08-14T05:55:08.539Z,98518.52
2022-08-14T05:57:45.519Z,98511.16
2022-08-14T06:00:28.392Z,98510.13
2022-08-14T06:03:00.276Z,98509.23
2022-08-14T06:05:29.052Z,98510.73
2022-08-14T06:07:58.402Z,98510.33
2022-08-14T06:10:28.211Z,98507.96
2022-08-14T06:13:03.347Z,98506.10
2022-08-14T06:15:30.984Z,98498.22
2022-08-14T06:18:00.097Z,98503.70
2022-08-14T06:20:30.032Z,98503.57
2022-08-14T06:22:58.399Z,98493.25
2022-08-14T06:25:27.827Z,98492.86
2022-08-14T06:27:55.769Z,98491.33
2022-08-14T06:30:46.325Z,98481.94
2022-08-14T06:33:18.041Z,98484.52
2022-08-14T06:35:47.749Z,98487.63
2022-08-14T06:38:21.575Z,98488.04
2022-08-14T06:40:52.293Z,98477.44
2022-08-14T06:43:20.737Z,98482.48
2022-08-14T06:45:53.910Z,98477.48
2022-08-14T06:48:24.410Z,98478.19
2022-08-14T06:50:53.759Z,98472.02
2022-08-14T06:53:22.198Z,98474.72
2022-08-14T06:55:58.299Z,98463.46
2022-08-14T06:58:31.352Z,98470.14
2022-08-14T07:01:26.758Z,98465.12
2022-08-14T07:04:22.672Z,98465.61
2022-08-14T07:06:55.623Z,98468.59
2022-08-14T07:09:40.484Z,98475.10
2022-08-14T07:12:54.223Z,98475.91
2022-08-14T07:15:04.850Z,98469.27
2022-08-14T07:17:36.251Z,98462.89
2022-08-14T07:20:07.439Z,98463.70
2022-08-14T07:22:55.928Z,98465.44
2022-08-14T07:25:22.702Z,98462.09
2022-08-14T07:28:01.423Z,98457.15
2022-08-14T07:30:34.011Z,98469.88
2022-08-14T07:33:03.438Z,98472.72
2022-08-14T07:35:42.793Z,98474.42
2022-08-14T07:38:21.057Z,98484.69
2022-08-14T07:40:52.819Z,98475.43
2022-08-14T07:43:21.781Z,98472.02
2022-08-14T07:45:50.983Z,98468.50
2022-08-14T07:48:25.098Z,98467.32
2022-08-14T07:51:02.028Z,98466.47
2022-08-14T07:53:30.733Z,98461.66
2022-08-14T07:56:21.898Z,98459.29
2022-08-14T07:58:52.486Z,98464.77
2022-08-14T08:01:20.344Z,98465.83
2022-08-14T08:03:51.884Z,98468.36
2022-08-14T08:06:25.866Z,98475.59
2022-08-14T08:09:01.334Z,98475.55
2022-08-14T08:11:34.737Z,98458.92
2022-08-14T08:14:06.836Z,98453.42
2022-08-14T08:16:38.462Z,98456.59
2022-08-14T08:19:14.197Z,98455.15
2022-08-14T08:21:43.873Z,98449.55
2022-08-14T08:24:18.566Z,98450.08
2022-08-14T08:26:50.755Z,98449.33
2022-08-14T08:29:20.169Z,98459.41
2022-08-14T08:31:52.879Z,98457.06
2022-08-14T08:34:20.707Z,98454.75
2022-08-14T08:36:51.386Z,98448.64
2022-08-14T08:39:22.835Z,98450.57
2022-08-14T08:41:53.831Z,98429.41
2022-08-14T08:44:31.843Z,98437.80
2022-08-14T08:47:05.600Z,98439.23
2022-08-14T08:49:58.853Z,98439.95
2022-08-14T08:52:31.202Z,98445.84
2022-08-14T08:55:00.744Z,98440.02
2022-08-14T08:57:35.435Z,98441.89
2022-08-14T09:00:25.749Z,98440.46
2022-08-14T09:02:59.493Z,98436.53
2022-08-14T09:05:27.373Z,98438.45
2022-08-14T09:08:08.225Z,98443.23
2022-08-14T09:10:56.532Z,98443.48
2022-08-14T09:13:25.836Z,98440.84
2022-08-14T09:15:54.938Z,98436.77
2022-08-14T09:18:23.774Z,98445.14
2022-08-14T09:20:54.793Z,98448.52
2022-08-14T09:23:27.499Z,98446.42
2022-08-14T09:26:05.140Z,98442.02
2022-08-14T09:28:49.924Z,98436.89
2022-08-14T09:31:19.153Z,98440.70
2022-08-14T09:34:28.151Z,98433.23
2022-08-14T09:37:07.729Z,98435.96
2022-08-14T09:39:42.226Z,98432.85
2022-08-14T09:42:33.480Z,98430.44
2022-08-14T09:45:20.820Z,98421.23
2022-08-14T09:47:53.605Z,98418.55
2022-08-14T09:50:30.505Z,98418.01
2022-08-14T09:53:18.133Z,98415.91
2022-08-14T09:55:58.450Z,98406.08
2022-08-14T09:58:35.082Z,98414.84
2022-08-14T10:01:13.145Z,98412.63
2022-08-14T10:03:55.306Z,98411.37
2022-08-14T10:06:28.437Z,98407.63
2022-08-14T10:09:02.642Z,98405.55
2022-08-14T10:11:36.321Z,98407.43
2022-08-14T10:14:34.822Z,98405.79
2022-08-14T10:17:08.602Z,98393.76
2022-08-14T10:19:48.024Z,98384.54
2022-08-14T10:23:12.914Z,98384.85
2022-08-14T10:25:17.082Z,98376.52
2022-08-14T10:27:49.878Z,98374.77
2022-08-14T10:30:33.056Z,98378.02
2022-08-14T10:33:02.164Z,98383.35
2022-08-14T10:35:48.068Z,98378.52
2022-08-14T10:38:32.941Z,98372.94
2022-08-14T10:41:13.055Z,98367.34
2022-08-14T10:43:42.349Z,98371.09
2022-08-14T10:47:37.009Z,98372.52
2022-08-14T10:49:06.296Z,98374.11
2022-08-14T10:51:35.321Z,98375.42
2022-08-14T10:54:17.177Z,98379.08
2022-08-14T10:56:58.809Z,98377.83
2022-08-14T10:59:31.372Z,98379.96
2022-08-14T11:02:03.805Z,98377.95
2022-08-14T11:04:31.770Z,98371.53
2022-08-14T11:07:00.652Z,98370.02
2022-08-14T11:09:31.996Z,98368.93
2022-08-14T11:12:34.512Z,98366.91
2022-08-14T11:14:58.824Z,98366.75
2022-08-14T11:17:38.546Z,98360.13
2022-08-14T11:20:16.020Z,98353.91
2022-08-14T11:22:55.605Z,98347.19
2022-08-14T11:25:43.930Z,98351.66
2022-08-14T11:28:19.656Z,98340.91
2022-08-14T11:31:10.091Z,98346.77
2022-08-14T11:33:39.307Z,98348.96
2022-08-14T11:36:18.553Z,98343.10
2022-08-14T11:38:46.661Z,98335.23
2022-08-14T11:41:18.175Z,98328.10
2022-08-14T11:43:57.689Z,98327.73
2022-08-14T11:46:30.752Z,98330.94
2022-08-14T11:49:06.599Z,98328.47
2022-08-14T11:51:50.789Z,98322.68
2022-08-14T11:54:33.970Z,98331.45
2022-08-14T11:57:04.856Z,98331.77
2022-08-14T11:59:33.850Z,98334.98
2022-08-14T12:02:39.194Z,98336.63
2022-08-14T12:05:04.593Z,98334.92
2022-08-14T12:07:48.305Z,98329.83
2022-08-14T12:10:27.018Z,98323.30
2022-08-14T12:13:18.625Z,98331.75
2022-08-14T12:15:57.045Z,98330.77
2022-08-14T12:18:36.994Z,98322.09
2022-08-14T12:21:15.771Z,98324.25
2022-08-14T12:23:44.618Z,98321.30
2022-08-14T12:26:39.937Z,98321.09
2022-08-14T12:29:11.040Z,98305.80
2022-08-14T12:31:47.298Z,98300.25
2022-08-14T12:34:20.316Z,98306.39
2022-08-14T12:37:02.413Z,98295.08
2022-08-14T12:39:29.811Z,98291.17
2022-08-14T12:42:07.861Z,98283.38
2022-08-14T12:44:38.266Z,98283.33
2022-08-14T12:47:17.552Z,98274.58
2022-08-14T12:49:53.078Z,98274.75
2022-08-14T12:52:43.187Z,98276.60
2022-08-14T12:55:21.743Z,98285.27
2022-08-14T12:57:53.453Z,98274.71
2022-08-14T13:00:25.076Z,98278.33
2022-08-14T13:02:55.441Z,98278.73
2022-08-14T13:05:31.381Z,98283.70
2022-08-14T13:08:00.323Z,98296.70
2022-08-14T13:10:47.757Z,98295.61
2022-08-14T13:13:20.603Z,98293.85
2022-08-14T13:15:57.487Z,98290.85
2022-08-14T13:18:27.930Z,98275.14
2022-08-14T13:21:01.917Z,98273.73
2022-08-14T13:23:36.060Z,98269.16
2022-08-14T13:26:04.209Z,98272.15
2022-08-14T13:28:39.775Z,98265.26
2022-08-14T13:31:29.801Z,98259.61
2022-08-14T13:33:59.853Z,98255.42
2022-08-14T13:36:51.942Z,98242.89
2022-08-14T13:39:19.934Z,98242.29
2022-08-14T13:41:48.828Z,98233.39
2022-08-14T13:44:26.677Z,98236.91
2022-08-14T13:46:53.865Z,98232.42
2022-08-14T13:49:23.771Z,98227.83
2022-08-14T13:51:58.947Z,98227.55
2022-08-14T13:54:29.588Z,98225.65
2022-08-14T13:57:03.908Z,98230.09
2022-08-14T13:59:37.285Z,98226.04
2022-08-14T14:02:07.892Z,98224.34
2022-08-14T14:04:41.672Z,98224.30
2022-08-14T14:07:15.006Z,98221.77
2022-08-14T14:09:52.538Z,98212.11
2022-08-14T14:12:37.241Z,98202.20
2022-08-14T14:15:11.364Z,98204.65
2022-08-14T14:17:39.541Z,98201.05
2022-08-14T14:20:34.201Z,98192.42
2022-08-14T14:23:03.480Z,98193.81
2022-08-14T14:25:51.303Z,98188.57
2022-08-14T14:28:31.287Z,98187.25
2022-08-14T14:31:06.842Z,98179.23
2022-08-14T14:33:51.626Z,98188.40
2022-08-14T14:36:21.948Z,98178.83
2022-08-14T14:39:01.791Z,98179.55
2022-08-14T14:41:37.970Z,98175.63
2022-08-14T14:44:09.020Z,98180.89
2022-08-14T14:46:41.523Z,98167.00
2022-08-14T14:49:14.063Z,98168.76
2022-08-14T14:51:44.996Z,98166.21
2022-08-14T14:54:17.801Z,98164.92
2022-08-14T14:56:51.899Z,98157.06
2022-08-14T14:59:21.341Z,98156.43
2022-08-14T15:01:50.121Z,98149.02
2022-08-14T15:04:21.134Z,98151.50
2022-08-14T15:06:50.090Z,98160.85
2022-08-14T15:09:20.661Z,98156.11
2022-08-14T15:11:51.573Z,98155.13
2022-08-14T15:14:55.588Z,98153.77
2022-08-14T15:17:08.903Z,98151.77
2022-08-14T15:19:38.050Z,98154.91
2022-08-14T15:22:07.608Z,98148.27
2022-08-14T15:24:38.271Z,98156.20
2022-08-14T15:27:08.902Z,98147.69
2022-08-14T15:29:43.068Z,98151.66
2022-08-14T15:32:11.336Z,98143.31
2022-08-14T15:34:51.319Z,98144.02
2022-08-14T15:37:22.983Z,98133.48
2022-08-14T15:39:52.615Z,98127.52
2022-08-14T15:42:22.780Z,98123.52
2022-08-14T15:44:58.597Z,98124.70
2022-08-14T15:47:32.718Z,98120.02
2022-08-14T15:50:04.434Z,98119.64
2022-08-14T15:52:35.441Z,98114.42
2022-08-14T15:55:08.382Z,98117.27
2022-08-14T15:57:37.114Z,98117.41
2022-08-14T16:00:41.827Z,98118.92
2022-08-14T16:03:15.710Z,98114.92
2022-08-14T16:05:45.753Z,98115.63
2022-08-14T16:08:26.825Z,98114.38
2022-08-14T16:14:59.915Z,98125.54
2022-08-14T16:17:28.275Z,98128.33
2022-08-14T16:19:56.805Z,98123.48
2022-08-14T16:22:59.053Z,98106.27
2022-08-14T16:25:18.356Z,98110.92
2022-08-14T16:32:01.522Z,98119.40
